Helenwood, Tennessee
Current Conditions -  °F | °C
As of 2:53 AM on Saturday 22 Nov 2014 (Local Time) from KOQT Reporting Station
Clear Clear  
Wind Chill: 29°   Ceiling: Unl
Heat Index: 29°   Visibility: 10mi
Dew Point: 24°   Wind: 0mph
Humidity: 82%   Direction: NA
Pressure: 30.45"   Gusts: NA
Location:  36.43°N, 84.54°W
Report Text: KOQT 220753Z AUTO 00000KT 10SM CLR M02/M04 A3045 RMK AO2 SLP321 T10171044
Loading
Personal Weather Stations






























Interactive Weather Map New forecast layout! Learn more

10-Day Weather Forecast

Advertisements
Track Severe Weather on mobile